createdAt,value
2018-06-12T00:02:28.005Z,56.06
2018-06-12T00:05:05.338Z,55.94
2018-06-12T00:07:40.346Z,55.70
2018-06-12T00:10:15.079Z,55.97
2018-06-12T00:12:50.121Z,56.06
2018-06-12T00:15:26.466Z,56.73
2018-06-12T00:18:03.162Z,56.71
2018-06-12T00:20:39.086Z,56.12
2018-06-12T00:23:15.598Z,56.41
2018-06-12T00:25:52.227Z,56.27
2018-06-12T00:28:27.940Z,56.54
2018-06-12T00:31:01.409Z,56.47
2018-06-12T00:33:36.402Z,56.45
2018-06-12T00:36:12.083Z,56.84
2018-06-12T00:38:46.804Z,57.04
2018-06-12T00:41:21.798Z,56.99
2018-06-12T00:43:56.907Z,56.87
2018-06-12T00:46:31.874Z,57.46
2018-06-12T00:49:07.077Z,57.51
2018-06-12T00:51:40.493Z,57.51
2018-06-12T00:54:13.863Z,57.37
2018-06-12T00:56:58.629Z,57.75
2018-06-12T00:59:32.042Z,57.17
2018-06-12T01:02:05.788Z,57.21
2018-06-12T01:04:39.200Z,57.22
2018-06-12T01:07:12.626Z,57.21
2018-06-12T01:09:46.043Z,57.19
2018-06-12T01:12:19.472Z,57.11
2018-06-12T01:14:52.894Z,57.05
2018-06-12T01:17:26.311Z,57.19
2018-06-12T01:19:59.710Z,57.06
2018-06-12T01:22:33.119Z,57.14
2018-06-12T01:25:06.545Z,57.13
2018-06-12T01:27:39.935Z,56.77
2018-06-12T01:30:13.370Z,57.07
2018-06-12T01:32:46.974Z,57.25
2018-06-12T01:35:20.511Z,57.49
2018-06-12T01:37:53.924Z,56.99
2018-06-12T01:40:27.313Z,57.41
2018-06-12T01:43:00.831Z,57.19
2018-06-12T01:45:34.224Z,57.44
2018-06-12T01:48:07.650Z,57.35
2018-06-12T01:50:41.066Z,56.77
2018-06-12T01:53:14.579Z,57.17
2018-06-12T01:55:47.975Z,56.92
2018-06-12T01:58:21.391Z,57.03
2018-06-12T02:00:54.785Z,57.16
2018-06-12T02:03:28.252Z,57.24
2018-06-12T02:06:01.739Z,57.22
2018-06-12T02:08:35.193Z,57.08
2018-06-12T02:11:08.615Z,56.86
2018-06-12T02:13:42.076Z,56.67
2018-06-12T02:16:15.486Z,56.39
2018-06-12T02:18:48.897Z,56.08
2018-06-12T02:21:22.280Z,56.22
2018-06-12T02:23:55.703Z,55.48
2018-06-12T02:26:29.140Z,55.91
2018-06-12T02:29:02.547Z,55.94
2018-06-12T02:31:35.944Z,55.81
2018-06-12T02:34:09.344Z,55.33
2018-06-12T02:36:42.704Z,55.49
2018-06-12T02:39:16.112Z,54.57
2018-06-12T02:41:50.415Z,55.03
2018-06-12T02:44:23.807Z,54.43
2018-06-12T02:46:57.168Z,55.20
2018-06-12T02:49:30.555Z,54.94
2018-06-12T02:52:04.011Z,54.04
2018-06-12T02:54:37.419Z,54.09
2018-06-12T02:57:10.803Z,55.36
2018-06-12T02:59:44.201Z,54.34
2018-06-12T03:02:17.569Z,54.14
2018-06-12T03:04:50.972Z,53.96
2018-06-12T03:07:24.376Z,53.41
2018-06-12T03:09:57.790Z,53.66
2018-06-12T03:12:31.197Z,53.10
2018-06-12T03:15:04.687Z,52.70
2018-06-12T03:17:38.120Z,52.89
2018-06-12T03:20:11.573Z,52.55
2018-06-12T03:22:45.002Z,52.85
2018-06-12T03:25:18.494Z,52.33
2018-06-12T03:27:51.923Z,52.14
2018-06-12T03:30:25.342Z,52.27
2018-06-12T03:32:58.793Z,52.03
2018-06-12T03:35:32.239Z,52.54
2018-06-12T03:38:05.699Z,53.18
2018-06-12T03:40:39.112Z,52.08
2018-06-12T03:43:12.544Z,51.78
2018-06-12T03:45:45.964Z,52.08
2018-06-12T03:48:19.455Z,51.80
2018-06-12T03:50:52.875Z,51.94
2018-06-12T03:53:26.287Z,50.88
2018-06-12T03:55:59.728Z,50.97
2018-06-12T03:58:33.159Z,51.88
2018-06-12T04:01:06.568Z,51.39
2018-06-12T04:03:40.006Z,50.93
2018-06-12T04:06:13.732Z,50.77
2018-06-12T04:08:47.171Z,50.43
2018-06-12T04:11:20.597Z,50.32
2018-06-12T04:13:54.017Z,51.01
2018-06-12T04:16:27.474Z,50.91
2018-06-12T04:19:00.897Z,50.98
2018-06-12T04:21:34.717Z,50.60
2018-06-12T04:24:08.174Z,51.00
2018-06-12T04:26:41.603Z,50.62
2018-06-12T04:29:21.279Z,51.15
2018-06-12T04:31:54.724Z,50.98
2018-06-12T04:34:28.215Z,50.83
2018-06-12T04:37:01.609Z,50.86
2018-06-12T04:39:35.093Z,50.77
2018-06-12T04:42:08.475Z,50.31
2018-06-12T04:44:42.240Z,49.83
2018-06-12T04:47:16.172Z,49.77
2018-06-12T04:49:49.771Z,50.27
2018-06-12T04:52:23.173Z,49.68
2018-06-12T04:54:56.740Z,49.42
2018-06-12T04:57:30.171Z,49.07
2018-06-12T05:00:03.664Z,49.68
2018-06-12T05:02:37.035Z,49.52
2018-06-12T05:05:10.461Z,48.89
2018-06-12T05:07:43.900Z,49.15
2018-06-12T05:10:17.354Z,49.00
2018-06-12T05:12:50.756Z,49.23
2018-06-12T05:15:24.270Z,48.99
2018-06-12T05:17:57.745Z,49.51
2018-06-12T05:20:31.200Z,49.18
2018-06-12T05:23:05.916Z,48.69
2018-06-12T05:25:39.366Z,48.74
2018-06-12T05:28:12.964Z,48.85
2018-06-12T05:30:46.627Z,48.94
2018-06-12T05:33:20.285Z,48.84
2018-06-12T05:35:53.990Z,48.10
2018-06-12T05:38:27.634Z,49.07
2018-06-12T05:41:01.314Z,49.19
2018-06-12T05:43:34.926Z,48.46
2018-06-12T05:46:08.554Z,47.18
2018-06-12T05:48:42.143Z,48.26
2018-06-12T05:51:15.863Z,47.35
2018-06-12T05:53:49.470Z,49.56
2018-06-12T05:56:23.100Z,47.71
2018-06-12T05:58:56.855Z,47.80
2018-06-12T06:01:30.263Z,47.94
2018-06-12T06:04:03.686Z,48.66
2018-06-12T06:06:37.119Z,47.46
2018-06-12T06:09:10.544Z,47.88
2018-06-12T06:11:43.976Z,47.83
2018-06-12T06:14:17.408Z,47.66
2018-06-12T06:16:50.866Z,47.49
2018-06-12T06:19:24.284Z,47.00
2018-06-12T06:21:57.688Z,46.98
2018-06-12T06:24:31.077Z,47.75
2018-06-12T06:27:04.522Z,47.01
2018-06-12T06:29:37.937Z,46.38
2018-06-12T06:32:11.381Z,46.53
2018-06-12T06:34:44.816Z,46.70
2018-06-12T06:37:18.235Z,46.72
2018-06-12T06:39:51.635Z,46.63
2018-06-12T06:42:25.129Z,46.98
2018-06-12T06:44:58.563Z,46.30
2018-06-12T06:47:32.014Z,46.95
2018-06-12T06:50:05.510Z,47.03
2018-06-12T06:52:38.918Z,46.54
2018-06-12T06:55:12.333Z,46.27
2018-06-12T06:57:45.744Z,46.55
2018-06-12T07:00:19.246Z,47.30
2018-06-12T07:02:52.663Z,46.57
2018-06-12T07:05:26.118Z,46.82
2018-06-12T07:07:59.538Z,46.35
2018-06-12T07:10:32.964Z,46.24
2018-06-12T07:13:06.442Z,47.46
2018-06-12T07:15:39.894Z,46.48
2018-06-12T07:18:13.267Z,47.00
2018-06-12T07:21:22.385Z,47.66
2018-06-12T07:23:55.800Z,47.27
2018-06-12T07:26:29.260Z,47.07
2018-06-12T07:29:02.682Z,47.19
2018-06-12T07:31:36.075Z,47.30
2018-06-12T07:34:09.469Z,46.54
2018-06-12T07:36:42.964Z,46.49
2018-06-12T07:39:16.359Z,45.46
2018-06-12T07:41:50.128Z,45.84
2018-06-12T07:44:23.507Z,45.94
2018-06-12T07:46:56.975Z,44.74
2018-06-12T07:49:30.450Z,44.84
2018-06-12T07:52:03.915Z,44.31
2018-06-12T07:54:37.331Z,44.99
2018-06-12T07:57:10.772Z,44.86
2018-06-12T07:59:44.174Z,45.88
2018-06-12T08:02:17.877Z,45.73
2018-06-12T08:04:51.255Z,46.10
2018-06-12T08:07:24.682Z,45.80
2018-06-12T08:09:58.103Z,45.68
2018-06-12T08:12:31.549Z,45.72
2018-06-12T08:15:05.007Z,45.56
2018-06-12T08:17:38.446Z,45.32
2018-06-12T08:20:11.861Z,45.89
2018-06-12T08:22:45.372Z,45.48
2018-06-12T08:25:18.852Z,46.17
2018-06-12T08:27:52.292Z,45.75
2018-06-12T08:30:25.899Z,45.64
2018-06-12T08:32:59.141Z,44.88
2018-06-12T08:35:32.514Z,45.96
2018-06-12T08:38:05.933Z,45.79
2018-06-12T08:40:39.356Z,45.13
2018-06-12T08:43:12.775Z,45.29
2018-06-12T08:45:46.197Z,44.81
2018-06-12T08:48:19.676Z,45.23
2018-06-12T08:50:53.086Z,44.65
2018-06-12T08:53:26.519Z,44.34
2018-06-12T08:55:59.963Z,45.32
2018-06-12T08:58:33.371Z,44.31
2018-06-12T09:01:06.896Z,43.70
2018-06-12T09:03:40.767Z,43.11
2018-06-12T09:06:14.144Z,42.85
2018-06-12T09:08:47.539Z,43.22
2018-06-12T09:11:20.964Z,42.79
2018-06-12T09:13:54.347Z,43.35
2018-06-12T09:16:27.759Z,42.87
2018-06-12T09:19:01.218Z,42.68
2018-06-12T09:21:34.647Z,42.76
2018-06-12T09:24:08.061Z,42.96
2018-06-12T09:26:41.627Z,42.51
2018-06-12T09:29:15.115Z,42.56
2018-06-12T09:31:48.521Z,43.11
2018-06-12T09:34:21.999Z,43.55
2018-06-12T09:36:55.435Z,43.88
2018-06-12T09:39:28.865Z,43.09
2018-06-12T09:42:02.285Z,42.52
2018-06-12T09:44:35.727Z,43.36
2018-06-12T09:47:09.158Z,43.16
2018-06-12T09:49:42.622Z,43.27
2018-06-12T09:52:16.030Z,42.95
2018-06-12T09:54:49.486Z,43.66
2018-06-12T09:57:23.089Z,43.55
2018-06-12T09:59:56.489Z,45.12
2018-06-12T10:02:29.883Z,43.73
2018-06-12T10:05:03.289Z,42.33
2018-06-12T10:07:36.796Z,43.65
2018-06-12T10:10:10.174Z,42.73
2018-06-12T10:12:43.598Z,42.92
2018-06-12T10:15:17.041Z,41.85
2018-06-12T10:17:50.461Z,41.89
2018-06-12T10:20:23.875Z,42.60
2018-06-12T10:22:57.350Z,42.08
2018-06-12T10:25:30.736Z,42.74
2018-06-12T10:28:04.192Z,41.86
2018-06-12T10:30:37.585Z,40.74
2018-06-12T10:33:11.032Z,40.42
2018-06-12T10:35:44.414Z,40.15
2018-06-12T10:38:17.847Z,40.75
2018-06-12T10:40:51.332Z,40.23
2018-06-12T10:43:24.711Z,40.38
2018-06-12T10:45:58.107Z,41.35
2018-06-12T10:48:31.546Z,40.69
2018-06-12T10:51:04.952Z,40.27
2018-06-12T10:53:38.351Z,40.15
2018-06-12T10:56:11.795Z,40.81
2018-06-12T10:58:45.240Z,40.54
2018-06-12T11:01:18.706Z,41.22
2018-06-12T11:03:52.235Z,41.11
2018-06-12T11:06:25.651Z,41.20
2018-06-12T11:08:59.097Z,41.25
2018-06-12T11:11:32.489Z,40.95
2018-06-12T11:14:05.962Z,40.76
2018-06-12T11:16:39.367Z,40.88
2018-06-12T11:19:12.786Z,40.86
2018-06-12T11:21:46.191Z,40.97
2018-06-12T11:24:19.625Z,41.63
2018-06-12T11:26:53.015Z,41.73
2018-06-12T11:29:26.469Z,40.92
2018-06-12T11:31:59.987Z,40.80
2018-06-12T11:34:33.449Z,40.47
2018-06-12T11:37:06.891Z,41.44
2018-06-12T11:39:40.332Z,41.53
2018-06-12T11:42:13.766Z,41.13
2018-06-12T11:44:47.212Z,41.31
2018-06-12T11:47:20.625Z,41.03
2018-06-12T11:49:54.045Z,39.76
2018-06-12T11:52:27.479Z,40.12
2018-06-12T11:55:00.861Z,40.56
2018-06-12T11:57:34.272Z,39.92
2018-06-12T12:00:07.751Z,40.27
2018-06-12T12:02:41.192Z,41.32
2018-06-12T12:05:14.652Z,39.27
2018-06-12T12:07:48.019Z,39.76
2018-06-12T12:10:21.450Z,39.75
2018-06-12T12:12:54.831Z,40.11
2018-06-12T12:15:28.341Z,41.20
2018-06-12T12:18:01.740Z,41.00
2018-06-12T12:20:35.185Z,40.78
2018-06-12T12:23:08.641Z,40.20
2018-06-12T12:25:42.040Z,41.24
2018-06-12T12:28:15.438Z,40.85
2018-06-12T12:30:48.858Z,40.46
2018-06-12T12:33:22.256Z,40.32
2018-06-12T12:35:55.667Z,39.79
2018-06-12T12:38:29.584Z,40.39
2018-06-12T12:41:02.978Z,41.16
2018-06-12T12:43:36.450Z,41.60
2018-06-12T12:46:09.881Z,40.97
2018-06-12T12:48:43.291Z,41.47
2018-06-12T12:51:16.688Z,41.42
2018-06-12T12:53:50.108Z,41.75
2018-06-12T12:56:23.577Z,40.87
2018-06-12T12:58:57.064Z,40.74
2018-06-12T13:01:30.460Z,41.60
2018-06-12T13:04:03.997Z,41.21
2018-06-12T13:06:37.501Z,41.30
2018-06-12T13:09:10.933Z,41.85
2018-06-12T13:11:44.335Z,40.48
2018-06-12T13:14:17.756Z,40.82
2018-06-12T13:16:51.135Z,41.22
2018-06-12T13:19:24.524Z,41.26
2018-06-12T13:21:57.912Z,40.04
2018-06-12T13:24:31.315Z,40.07
2018-06-12T13:27:04.771Z,39.20
2018-06-12T13:29:38.173Z,40.06
2018-06-12T13:32:11.536Z,39.33
2018-06-12T13:34:44.897Z,39.99
2018-06-12T13:37:18.815Z,39.62
2018-06-12T13:39:52.211Z,39.83
2018-06-12T13:42:25.580Z,39.60
2018-06-12T13:44:58.960Z,38.96
2018-06-12T13:47:32.331Z,39.49
2018-06-12T13:50:05.696Z,40.95
2018-06-12T13:52:39.048Z,39.86
2018-06-12T13:55:12.433Z,39.96
2018-06-12T13:57:45.774Z,40.41
2018-06-12T14:00:19.400Z,41.04
2018-06-12T14:02:52.740Z,39.20
2018-06-12T14:05:26.117Z,39.47
2018-06-12T14:07:59.475Z,39.82
2018-06-12T14:10:32.857Z,39.82
2018-06-12T14:13:06.275Z,40.08
2018-06-12T14:15:39.667Z,40.82
2018-06-12T14:18:13.040Z,39.41
2018-06-12T14:20:46.463Z,40.16
2018-06-12T14:23:19.812Z,39.89
2018-06-12T14:25:53.179Z,39.60
2018-06-12T14:28:26.559Z,40.22
2018-06-12T14:30:59.940Z,40.32
2018-06-12T14:33:33.367Z,40.54
2018-06-12T14:36:06.734Z,40.46
2018-06-12T14:38:40.095Z,41.06
2018-06-12T14:41:13.521Z,40.44
2018-06-12T14:43:46.872Z,40.67
2018-06-12T14:46:20.257Z,40.34
2018-06-12T14:48:53.667Z,41.36
2018-06-12T14:51:27.051Z,39.93
2018-06-12T14:54:00.404Z,39.97
2018-06-12T14:56:33.774Z,40.05
2018-06-12T14:59:07.135Z,40.63
2018-06-12T15:01:40.611Z,40.19
2018-06-12T15:04:13.972Z,39.96
2018-06-12T15:06:47.421Z,40.24
2018-06-12T15:09:20.850Z,40.25
2018-06-12T15:11:54.586Z,39.70
2018-06-12T15:14:28.267Z,39.66
2018-06-12T15:17:01.656Z,38.92
2018-06-12T15:19:35.248Z,39.37
2018-06-12T15:22:08.686Z,38.70
2018-06-12T15:24:42.392Z,39.30
2018-06-12T15:27:16.689Z,39.91
2018-06-12T15:29:50.771Z,40.79
2018-06-12T15:32:26.862Z,40.35
2018-06-12T15:35:01.111Z,39.67
2018-06-12T15:37:34.556Z,39.38
2018-06-12T15:40:08.071Z,40.31
2018-06-12T15:42:41.483Z,39.67
2018-06-12T15:45:15.189Z,40.26
2018-06-12T15:47:48.600Z,40.24
2018-06-12T15:50:21.985Z,40.20
2018-06-12T15:52:55.417Z,41.09
2018-06-12T15:55:28.886Z,41.60
2018-06-12T15:58:02.299Z,41.29
2018-06-12T16:00:35.691Z,41.51
2018-06-12T16:03:10.003Z,41.91
2018-06-12T16:05:43.478Z,41.76
2018-06-12T16:08:16.962Z,41.72
2018-06-12T16:10:50.665Z,41.86
2018-06-12T16:13:24.221Z,42.28
2018-06-12T16:15:57.683Z,41.96
2018-06-12T16:18:31.204Z,41.64
2018-06-12T16:21:04.631Z,41.88
2018-06-12T16:23:38.055Z,41.95
2018-06-12T16:26:11.622Z,42.41
2018-06-12T16:28:44.948Z,42.27
2018-06-12T16:31:18.360Z,42.44
2018-06-12T16:33:52.111Z,42.77
2018-06-12T16:36:25.909Z,44.45
2018-06-12T16:38:59.348Z,43.05
2018-06-12T16:41:32.849Z,42.16
2018-06-12T16:44:06.306Z,41.92
2018-06-12T16:46:41.784Z,41.83
2018-06-12T16:49:17.616Z,41.27
2018-06-12T16:51:54.641Z,42.04
2018-06-12T16:54:31.465Z,41.63
2018-06-12T16:57:09.258Z,42.29
2018-06-12T16:59:45.088Z,42.37
2018-06-12T17:02:22.170Z,43.01
2018-06-12T17:04:55.921Z,42.38
2018-06-12T17:07:29.772Z,42.74
2018-06-12T17:10:03.420Z,41.82
2018-06-12T17:12:37.015Z,41.70
2018-06-12T17:15:10.477Z,41.84
2018-06-12T17:17:44.027Z,41.45
2018-06-12T17:20:17.473Z,42.22
2018-06-12T17:22:50.972Z,42.50
2018-06-12T17:25:24.608Z,42.70
2018-06-12T17:27:58.072Z,42.69
2018-06-12T17:30:31.555Z,42.61
2018-06-12T17:33:05.036Z,42.94
2018-06-12T17:35:38.502Z,42.07
2018-06-12T17:38:11.928Z,42.70
2018-06-12T17:40:45.305Z,42.94
2018-06-12T17:43:18.717Z,42.90
2018-06-12T17:45:52.105Z,43.43
2018-06-12T17:48:25.577Z,44.25
2018-06-12T17:50:59.044Z,43.47
2018-06-12T17:53:32.436Z,43.76
2018-06-12T17:56:05.787Z,44.23
2018-06-12T17:58:39.227Z,43.52
2018-06-12T18:01:12.597Z,43.89
2018-06-12T18:03:45.999Z,44.21
2018-06-12T18:06:19.466Z,44.81
2018-06-12T18:08:52.941Z,44.76
2018-06-12T18:11:26.311Z,44.56
2018-06-12T18:13:59.782Z,46.02
2018-06-12T18:16:33.160Z,43.87
2018-06-12T18:19:06.579Z,43.87
2018-06-12T18:21:39.948Z,44.51
2018-06-12T18:24:13.390Z,45.00
2018-06-12T18:26:46.753Z,44.10
2018-06-12T18:29:20.167Z,44.34
2018-06-12T18:31:53.556Z,45.45
2018-06-12T18:34:26.962Z,44.49
2018-06-12T18:37:01.087Z,44.85
2018-06-12T18:39:34.621Z,44.43
2018-06-12T18:42:09.207Z,44.19
2018-06-12T18:44:42.779Z,45.05
2018-06-12T18:47:16.712Z,44.65
2018-06-12T18:49:50.136Z,44.36
2018-06-12T18:52:23.713Z,45.60
2018-06-12T18:54:57.123Z,44.99
2018-06-12T18:57:30.537Z,45.32
2018-06-12T19:00:04.422Z,46.28
2018-06-12T19:02:37.877Z,45.69
2018-06-12T19:05:11.304Z,45.71
2018-06-12T19:07:44.725Z,46.61
2018-06-12T19:10:18.136Z,46.21
2018-06-12T19:12:51.534Z,46.24
2018-06-12T19:15:24.979Z,46.19
2018-06-12T19:17:58.388Z,46.58
2018-06-12T19:20:32.159Z,46.67
2018-06-12T19:23:05.564Z,47.48
2018-06-12T19:25:38.980Z,46.90
2018-06-12T19:28:12.409Z,50.41
2018-06-12T19:30:45.800Z,47.28
2018-06-12T19:33:19.539Z,48.06
2018-06-12T19:35:52.946Z,46.58
2018-06-12T19:38:26.349Z,47.00
2018-06-12T19:41:00.497Z,47.02
2018-06-12T19:43:33.968Z,48.03
2018-06-12T19:46:07.454Z,48.03
2018-06-12T19:48:41.029Z,47.70
2018-06-12T19:51:14.433Z,48.44
2018-06-12T19:53:47.837Z,47.48
2018-06-12T19:56:21.237Z,47.76
2018-06-12T19:58:55.080Z,48.09
2018-06-12T20:01:30.449Z,48.50
2018-06-12T20:04:04.529Z,48.51
2018-06-12T20:06:39.113Z,48.35
2018-06-12T20:09:12.548Z,48.55
2018-06-12T20:11:45.915Z,48.91
2018-06-12T20:14:19.440Z,48.60
2018-06-12T20:16:52.819Z,48.62
2018-06-12T20:19:26.192Z,51.48
2018-06-12T20:21:59.567Z,48.97
2018-06-12T20:24:33.409Z,49.17
2018-06-12T20:27:06.942Z,49.25
2018-06-12T20:29:40.382Z,49.06
2018-06-12T20:32:13.861Z,48.62
2018-06-12T20:34:47.956Z,49.18
2018-06-12T20:37:21.322Z,51.68
2018-06-12T20:39:54.759Z,50.98
2018-06-12T20:42:28.139Z,50.41
2018-06-12T20:45:01.536Z,49.53
2018-06-12T20:47:34.925Z,49.42
2018-06-12T20:50:08.291Z,49.18
2018-06-12T20:52:41.644Z,49.48
2018-06-12T20:55:15.051Z,49.43
2018-06-12T20:57:48.412Z,49.67
2018-06-12T21:00:23.136Z,49.53
2018-06-12T21:02:56.675Z,50.26
2018-06-12T21:05:30.305Z,49.32
2018-06-12T21:08:03.760Z,50.16
2018-06-12T21:10:37.174Z,49.90
2018-06-12T21:13:10.579Z,49.22
2018-06-12T21:15:43.965Z,49.88
2018-06-12T21:18:17.347Z,50.16
2018-06-12T21:20:50.806Z,52.26
2018-06-12T21:23:24.223Z,50.55
2018-06-12T21:25:57.683Z,50.43
2018-06-12T21:28:31.102Z,52.05
2018-06-12T21:31:04.607Z,50.79
2018-06-12T21:33:37.988Z,50.68
2018-06-12T21:36:11.388Z,50.26
2018-06-12T21:38:44.863Z,50.27
2018-06-12T21:41:18.311Z,50.38
2018-06-12T21:43:51.672Z,50.75
2018-06-12T21:46:25.100Z,50.66
2018-06-12T21:48:58.498Z,50.60
2018-06-12T21:51:31.894Z,51.43
2018-06-12T21:54:05.344Z,51.11
2018-06-12T21:56:38.835Z,50.63
2018-06-12T21:59:12.219Z,50.75
2018-06-12T22:01:45.627Z,50.80
2018-06-12T22:04:19.007Z,50.88
2018-06-12T22:06:52.440Z,50.92
2018-06-12T22:09:25.820Z,51.11
2018-06-12T22:11:59.256Z,51.78
2018-06-12T22:14:32.664Z,51.48
2018-06-12T22:17:06.155Z,51.01
2018-06-12T22:19:39.532Z,50.62
2018-06-12T22:22:12.906Z,50.91
2018-06-12T22:24:46.320Z,50.76
2018-06-12T22:27:19.777Z,50.83
2018-06-12T22:29:53.211Z,51.50
2018-06-12T22:32:26.597Z,51.10
2018-06-12T22:35:00.023Z,51.44
2018-06-12T22:37:33.457Z,51.31
2018-06-12T22:40:06.881Z,50.91
2018-06-12T22:42:40.249Z,50.70
2018-06-12T22:45:13.648Z,51.12
2018-06-12T22:47:47.027Z,50.90
2018-06-12T22:50:20.476Z,52.29
2018-06-12T22:52:53.855Z,52.48
2018-06-12T22:55:27.263Z,51.48
2018-06-12T22:58:00.664Z,51.87
2018-06-12T23:00:34.075Z,52.13
2018-06-12T23:03:07.461Z,52.03
2018-06-12T23:05:40.874Z,52.21
2018-06-12T23:08:14.249Z,52.16
2018-06-12T23:10:47.664Z,52.59
2018-06-12T23:13:21.065Z,52.50
2018-06-12T23:15:54.517Z,52.34
2018-06-12T23:18:27.883Z,52.18
2018-06-12T23:21:13.345Z,52.70
2018-06-12T23:23:46.817Z,52.91
2018-06-12T23:26:20.223Z,52.38
2018-06-12T23:28:53.605Z,53.48
2018-06-12T23:31:26.996Z,52.76
2018-06-12T23:34:00.401Z,53.83
2018-06-12T23:36:33.840Z,53.34
2018-06-12T23:39:08.378Z,53.35
2018-06-12T23:41:41.777Z,53.79
2018-06-12T23:44:15.168Z,53.10
2018-06-12T23:46:48.539Z,53.86
2018-06-12T23:49:21.976Z,53.45
2018-06-12T23:51:55.377Z,53.85
2018-06-12T23:54:28.800Z,53.31
2018-06-12T23:57:02.267Z,53.59
2018-06-12T23:59:35.672Z,53.51
